Time;durP1;ratioP1;P1;durP2;ratioP2;P2;SDS_P1;SDS_P2;PMS_P1;PMS_P2;Temp;Humidity;BMP_temperature;BMP_pressure;BME280_temperature;BME280_humidity;BME280_pressure;Samples;Min_cycle;Max_cycle;Signal;HPM_P1;HPM_P2
2023/09/29 00:01:03;;;;;;;15.00;9.30;;;;;;;;;;739824;188;916465;-62
2023/09/29 00:03:29;;;;;;;14.00;9.33;;;;;;;;;;742265;187;914765;-61
2023/09/29 00:05:55;;;;;;;14.20;9.60;;;;;;;;;;743551;186;905132;-62
2023/09/29 00:08:22;;;;;;;15.00;10.90;;;;;;;;;;744871;186;915434;-62
2023/09/29 00:10:46;;;;;;;11.13;9.60;;;;;;;;;;747835;186;917986;-63
2023/09/29 00:13:13;;;;;;;16.27;9.13;;;;;;;;;;740341;186;918285;-62
2023/09/29 00:15:38;;;;;;;12.50;8.90;;;;;;;;;;741887;187;917910;-64
2023/09/29 00:18:05;;;;;;;11.37;9.47;;;;;;;;;;747435;187;918784;-62
2023/09/29 00:20:30;;;;;;;14.73;9.43;;;;;;;;;;741868;188;821765;-61
2023/09/29 00:22:56;;;;;;;14.77;9.90;;;;;;;;;;737767;188;918550;-62
2023/09/29 00:25:22;;;;;;;11.80;8.73;;;;;;;;;;741754;188;916123;-63
2023/09/29 00:27:48;;;;;;;13.10;9.03;;;;;;;;;;737943;189;920163;-64
2023/09/29 00:30:14;;;;;;;18.12;9.30;;;;;;;;;;720075;192;885542;-62
2023/09/29 00:32:42;;;;;;;11.67;8.43;;;;;;;;;;738340;188;919668;-62
2023/09/29 00:35:09;;;;;;;12.47;9.43;;;;;;;;;;743131;188;919080;-63
2023/09/29 00:37:34;;;;;;;11.77;8.83;;;;;;;;;;745730;187;920301;-62
2023/09/29 00:40:00;;;;;;;14.90;8.50;;;;;;;;;;743523;187;918863;-63
2023/09/29 00:42:26;;;;;;;12.20;9.20;;;;;;;;;;745716;187;921087;-63
2023/09/29 00:44:51;;;;;;;16.43;7.80;;;;;;;;;;743621;187;907098;-63
2023/09/29 00:47:17;;;;;;;10.10;8.00;;;;;;;;;;738908;188;863674;-62
2023/09/29 00:49:43;;;;;;;13.03;8.63;;;;;;;;;;742473;188;916054;-64
2023/09/29 00:52:09;;;;;;;12.83;9.07;;;;;;;;;;734009;187;919062;-64
2023/09/29 00:54:35;;;;;;;11.83;9.30;;;;;;;;;;734221;188;919397;-69
2023/09/29 00:57:01;;;;;;;12.37;8.57;;;;;;;;;;735469;188;919717;-65
2023/09/29 00:59:26;;;;;;;12.40;9.30;;;;;;;;;;737277;190;854530;-62
2023/09/29 01:01:52;;;;;;;16.70;8.93;;;;;;;;;;738480;188;919276;-63
2023/09/29 01:04:18;;;;;;;17.90;11.00;;;;;;;;;;739383;188;915709;-64
2023/09/29 01:06:45;;;;;;;15.10;10.43;;;;;;;;;;747821;187;889765;-64
2023/09/29 01:09:10;;;;;;;13.30;9.47;;;;;;;;;;736158;188;919082;-64
2023/09/29 01:11:40;;;;;;;12.20;7.83;;;;;;;;;;737550;188;920645;-63
2023/09/29 01:14:05;;;;;;;14.20;9.23;;;;;;;;;;744584;187;918492;-63
2023/09/29 01:16:31;;;;;;;10.47;8.30;;;;;;;;;;735207;188;919266;-63
2023/09/29 01:18:58;;;;;;;13.00;9.10;;;;;;;;;;741101;186;919460;-63
2023/09/29 01:21:23;;;;;;;13.33;9.10;;;;;;;;;;743221;186;912315;-63
2023/09/29 01:23:50;;;;;;;12.90;9.60;;;;;;;;;;742268;185;915950;-65
2023/09/29 01:26:15;;;;;;;11.40;8.70;;;;;;;;;;738380;188;817543;-65
2023/09/29 01:28:40;;;;;;;14.37;8.90;;;;;;;;;;741886;188;818676;-63
2023/09/29 01:31:06;;;;;;;13.07;9.73;;;;;;;;;;748425;188;713617;-63
2023/09/29 01:33:32;;;;;;;11.67;9.67;;;;;;;;;;742450;187;627044;-63
2023/09/29 01:35:58;;;;;;;14.93;9.48;;;;;;;;;;739741;187;919453;-64
2023/09/29 01:38:25;;;;;;;12.93;9.60;;;;;;;;;;744230;187;917918;-63
2023/09/29 01:40:51;;;;;;;13.10;9.03;;;;;;;;;;739379;188;863678;-64
2023/09/29 01:43:16;;;;;;;15.13;10.50;;;;;;;;;;735781;189;919702;-65
2023/09/29 01:45:41;;;;;;;13.73;9.48;;;;;;;;;;718425;194;918816;-64
2023/09/29 01:48:07;;;;;;;17.30;9.40;;;;;;;;;;742939;187;919436;-63
2023/09/29 01:50:33;;;;;;;12.73;9.90;;;;;;;;;;740588;187;918485;-63
2023/09/29 01:52:59;;;;;;;11.43;7.80;;;;;;;;;;731906;187;916863;-63
2023/09/29 01:55:26;;;;;;;12.17;9.03;;;;;;;;;;745441;187;891409;-63
2023/09/29 01:57:51;;;;;;;11.05;8.90;;;;;;;;;;741959;187;818780;-64
2023/09/29 02:00:23;;;;;;;13.10;9.53;;;;;;;;;;738565;188;919325;-63
2023/09/29 02:02:46;;;;;;;13.83;10.30;;;;;;;;;;744165;188;816293;-64
2023/09/29 02:05:12;;;;;;;12.80;9.15;;;;;;;;;;737201;188;919177;-64
2023/09/29 02:07:38;;;;;;;13.13;10.60;;;;;;;;;;739177;188;919386;-64
2023/09/29 02:10:04;;;;;;;12.47;9.97;;;;;;;;;;733190;189;919615;-64
2023/09/29 02:12:30;;;;;;;14.30;8.87;;;;;;;;;;736872;188;917177;-63
2023/09/29 02:14:56;;;;;;;11.53;9.07;;;;;;;;;;739325;188;918674;-63
2023/09/29 02:17:21;;;;;;;10.63;8.80;;;;;;;;;;734448;189;919379;-63
2023/09/29 02:19:47;;;;;;;17.40;9.33;;;;;;;;;;741076;189;915915;-64
2023/09/29 02:22:16;;;;;;;11.07;7.97;;;;;;;;;;741734;188;921552;-64
2023/09/29 02:24:39;;;;;;;11.33;8.73;;;;;;;;;;739553;187;1023551;-65
2023/09/29 02:27:05;;;;;;;11.60;9.00;;;;;;;;;;742315;188;1020116;-63
2023/09/29 02:29:31;;;;;;;10.67;8.73;;;;;;;;;;733046;187;1021974;-63
2023/09/29 02:31:56;;;;;;;13.73;9.13;;;;;;;;;;739563;187;918582;-64
2023/09/29 02:34:22;;;;;;;11.00;9.00;;;;;;;;;;745490;188;869625;-65
2023/09/29 02:36:48;;;;;;;13.83;9.47;;;;;;;;;;742753;187;917784;-64
2023/09/29 02:39:14;;;;;;;14.93;9.93;;;;;;;;;;740756;187;918638;-65
2023/09/29 02:41:40;;;;;;;13.00;9.30;;;;;;;;;;738917;187;860713;-65
2023/09/29 02:44:07;;;;;;;13.02;9.60;;;;;;;;;;743950;187;920919;-63
2023/09/29 02:46:32;;;;;;;16.33;9.67;;;;;;;;;;734938;188;919988;-64
2023/09/29 02:48:58;;;;;;;12.73;8.53;;;;;;;;;;738626;188;918298;-64
2023/09/29 02:51:23;;;;;;;11.40;8.37;;;;;;;;;;743358;188;917710;-65
2023/09/29 02:53:50;;;;;;;12.30;8.73;;;;;;;;;;738210;189;817070;-64
2023/09/29 02:56:16;;;;;;;12.35;8.93;;;;;;;;;;739521;189;816580;-64
2023/09/29 02:58:41;;;;;;;12.23;8.70;;;;;;;;;;738043;189;814829;-65
2023/09/29 03:01:12;;;;;;;13.47;9.30;;;;;;;;;;734635;188;908347;-64
2023/09/29 03:03:34;;;;;;;11.10;8.77;;;;;;;;;;738977;187;920380;-64
2023/09/29 03:06:00;;;;;;;13.87;9.10;;;;;;;;;;739190;187;917151;-64
2023/09/29 03:08:26;;;;;;;12.40;8.77;;;;;;;;;;737584;190;918359;-65
2023/09/29 03:10:51;;;;;;;11.80;9.13;;;;;;;;;;741410;187;919505;-65
2023/09/29 03:13:17;;;;;;;13.50;9.73;;;;;;;;;;738555;187;919381;-64
2023/09/29 03:15:43;;;;;;;10.20;8.13;;;;;;;;;;746296;187;847041;-64
2023/09/29 03:18:10;;;;;;;12.90;9.90;;;;;;;;;;742285;188;915260;-65
2023/09/29 03:20:35;;;;;;;12.80;9.13;;;;;;;;;;744112;187;821953;-65
2023/09/29 03:23:01;;;;;;;11.70;8.77;;;;;;;;;;743845;187;918117;-64
2023/09/29 03:25:27;;;;;;;14.05;9.00;;;;;;;;;;738659;188;920777;-64
2023/09/29 03:27:52;;;;;;;10.07;8.33;;;;;;;;;;739003;187;1021368;-65
2023/09/29 03:30:18;;;;;;;12.37;8.67;;;;;;;;;;742564;187;913532;-65
2023/09/29 03:32:44;;;;;;;10.90;8.87;;;;;;;;;;738723;187;814475;-65
2023/09/29 03:35:10;;;;;;;14.90;8.10;;;;;;;;;;737019;188;816093;-65
2023/09/29 03:37:37;;;;;;;9.90;6.93;;;;;;;;;;742006;187;918039;-65
2023/09/29 03:40:06;;;;;;;13.07;9.37;;;;;;;;;;747497;186;619292;-65
2023/09/29 03:42:29;;;;;;;13.63;9.37;;;;;;;;;;740320;186;916695;-65
2023/09/29 03:44:54;;;;;;;11.00;8.40;;;;;;;;;;742670;187;919906;-66
2023/09/29 03:47:20;;;;;;;13.03;9.27;;;;;;;;;;743574;188;920456;-65
2023/09/29 03:49:45;;;;;;;12.87;9.00;;;;;;;;;;739764;188;893319;-64
2023/09/29 03:52:12;;;;;;;18.50;9.80;;;;;;;;;;738984;187;919054;-65
2023/09/29 03:54:37;;;;;;;11.37;8.70;;;;;;;;;;741980;187;917507;-65
2023/09/29 03:57:03;;;;;;;12.00;8.87;;;;;;;;;;738088;187;917599;-66
2023/09/29 03:59:29;;;;;;;16.67;9.10;;;;;;;;;;744003;187;915880;-65
2023/09/29 04:01:55;;;;;;;11.30;9.27;;;;;;;;;;740352;187;914796;-65
2023/09/29 04:04:21;;;;;;;11.30;9.00;;;;;;;;;;746539;187;918966;-63
2023/09/29 04:06:47;;;;;;;11.57;8.50;;;;;;;;;;743963;187;918398;-64
2023/09/29 04:09:13;;;;;;;14.83;10.33;;;;;;;;;;741116;187;881156;-65
2023/09/29 04:11:40;;;;;;;15.90;9.50;;;;;;;;;;745799;188;919629;-64
2023/09/29 04:14:05;;;;;;;13.40;9.90;;;;;;;;;;740557;188;861134;-65
2023/09/29 04:16:31;;;;;;;13.80;8.80;;;;;;;;;;741632;187;920812;-64
2023/09/29 04:18:57;;;;;;;12.57;10.17;;;;;;;;;;740302;187;918017;-66
2023/09/29 04:21:23;;;;;;;13.20;10.23;;;;;;;;;;737512;187;920226;-65
2023/09/29 04:23:48;;;;;;;16.87;10.03;;;;;;;;;;742086;187;920771;-65
2023/09/29 04:26:14;;;;;;;11.95;9.20;;;;;;;;;;738156;188;914086;-64
2023/09/29 04:28:40;;;;;;;11.90;8.43;;;;;;;;;;734678;191;817785;-64
2023/09/29 04:31:06;;;;;;;12.80;8.82;;;;;;;;;;739930;187;817323;-65
2023/09/29 04:33:32;;;;;;;11.60;7.97;;;;;;;;;;740612;187;918345;-65
2023/09/29 04:35:58;;;;;;;14.50;9.00;;;;;;;;;;746976;187;816651;-65
2023/09/29 04:38:23;;;;;;;12.07;8.43;;;;;;;;;;742454;187;814715;-65
2023/09/29 04:40:49;;;;;;;22.13;9.20;;;;;;;;;;743621;188;626339;-65
2023/09/29 04:43:15;;;;;;;12.73;9.30;;;;;;;;;;750154;187;639416;-64
2023/09/29 04:45:41;;;;;;;16.90;9.80;;;;;;;;;;744119;187;660283;-65
2023/09/29 04:48:07;;;;;;;12.07;9.40;;;;;;;;;;739425;188;623232;-65
2023/09/29 04:50:34;;;;;;;13.20;9.93;;;;;;;;;;748576;188;633561;-65
2023/09/29 04:52:59;;;;;;;13.17;8.77;;;;;;;;;;748067;186;636733;-65
2023/09/29 04:55:24;;;;;;;11.70;8.57;;;;;;;;;;742382;187;619040;-65
2023/09/29 04:57:52;;;;;;;10.83;8.37;;;;;;;;;;743905;187;627742;-66
2023/09/29 05:00:16;;;;;;;12.33;8.37;;;;;;;;;;746046;186;635635;-65
2023/09/29 05:02:42;;;;;;;12.63;9.20;;;;;;;;;;744810;187;634064;-65
2023/09/29 05:05:08;;;;;;;12.27;8.57;;;;;;;;;;745179;188;624367;-65
2023/09/29 05:07:34;;;;;;;12.27;8.80;;;;;;;;;;748273;188;627126;-66
2023/09/29 05:10:00;;;;;;;14.30;8.80;;;;;;;;;;741790;187;909192;-65
2023/09/29 05:12:27;;;;;;;11.37;8.70;;;;;;;;;;746849;187;635913;-65
2023/09/29 05:14:52;;;;;;;11.90;9.27;;;;;;;;;;744278;187;857469;-66
2023/09/29 05:17:17;;;;;;;10.40;8.40;;;;;;;;;;741993;187;914524;-65
2023/09/29 05:19:43;;;;;;;13.30;9.57;;;;;;;;;;740580;187;916783;-64
2023/09/29 05:22:09;;;;;;;11.15;8.90;;;;;;;;;;742026;188;919476;-66
2023/09/29 05:24:35;;;;;;;13.37;9.07;;;;;;;;;;742778;188;817955;-66
2023/09/29 05:27:01;;;;;;;13.00;8.43;;;;;;;;;;745116;187;917512;-65
2023/09/29 05:29:27;;;;;;;22.33;9.83;;;;;;;;;;744203;187;920295;-66
2023/09/29 05:31:52;;;;;;;12.50;8.10;;;;;;;;;;748281;187;918695;-65
2023/09/29 05:34:19;;;;;;;14.53;9.77;;;;;;;;;;742428;187;919505;-65
2023/09/29 05:36:45;;;;;;;10.87;8.80;;;;;;;;;;739693;187;919304;-66
2023/09/29 05:39:10;;;;;;;11.47;8.70;;;;;;;;;;746597;187;919124;-65
2023/09/29 05:41:37;;;;;;;15.57;8.90;;;;;;;;;;737640;189;919888;-66
2023/09/29 05:44:02;;;;;;;14.27;9.27;;;;;;;;;;741199;188;919378;-66
2023/09/29 05:46:28;;;;;;;17.93;10.23;;;;;;;;;;743369;187;917650;-66
2023/09/29 05:48:54;;;;;;;15.17;10.53;;;;;;;;;;742502;187;915406;-65
2023/09/29 05:51:19;;;;;;;14.03;9.57;;;;;;;;;;739548;187;915360;-65
2023/09/29 05:53:45;;;;;;;11.90;8.93;;;;;;;;;;740656;187;919077;-66
2023/09/29 05:56:13;;;;;;;12.80;9.77;;;;;;;;;;744192;187;910376;-66
2023/09/29 05:58:37;;;;;;;18.10;11.23;;;;;;;;;;741154;187;920800;-66
2023/09/29 06:01:07;;;;;;;14.10;11.13;;;;;;;;;;739708;187;920808;-66
2023/09/29 06:03:33;;;;;;;20.30;13.27;;;;;;;;;;747229;187;920958;-66
2023/09/29 06:05:59;;;;;;;24.43;12.87;;;;;;;;;;747338;186;755870;-66
2023/09/29 06:08:25;;;;;;;16.53;12.63;;;;;;;;;;739161;188;918525;-67
2023/09/29 06:10:51;;;;;;;15.07;12.40;;;;;;;;;;745068;186;918775;-65
2023/09/29 06:13:17;;;;;;;18.25;12.15;;;;;;;;;;736015;189;912563;-67
2023/09/29 06:15:43;;;;;;;19.00;11.40;;;;;;;;;;742801;186;919016;-66
2023/09/29 06:18:08;;;;;;;14.77;10.70;;;;;;;;;;737747;188;919276;-65
2023/09/29 06:20:34;;;;;;;14.90;10.90;;;;;;;;;;743676;186;916933;-66
2023/09/29 06:23:00;;;;;;;24.90;12.43;;;;;;;;;;740573;187;923969;-66
2023/09/29 06:25:26;;;;;;;17.20;10.73;;;;;;;;;;739920;187;818611;-66
2023/09/29 06:27:52;;;;;;;18.80;10.50;;;;;;;;;;742364;188;816163;-66
2023/09/29 06:30:18;;;;;;;20.33;12.80;;;;;;;;;;744223;187;817721;-66
2023/09/29 06:32:44;;;;;;;18.00;11.83;;;;;;;;;;746586;187;714413;-66
2023/09/29 06:35:10;;;;;;;13.87;10.83;;;;;;;;;;750164;187;614325;-67
2023/09/29 06:37:35;;;;;;;19.23;12.90;;;;;;;;;;743782;188;618942;-67
2023/09/29 06:40:01;;;;;;;16.03;11.90;;;;;;;;;;746112;187;612976;-67
2023/09/29 06:42:27;;;;;;;13.97;10.97;;;;;;;;;;743480;188;622708;-67
2023/09/29 06:44:53;;;;;;;16.47;11.13;;;;;;;;;;747097;188;787693;-67
2023/09/29 06:47:19;;;;;;;16.30;11.23;;;;;;;;;;736268;189;897115;-66
2023/09/29 06:49:45;;;;;;;20.60;12.13;;;;;;;;;;737862;188;912711;-67
2023/09/29 06:52:11;;;;;;;17.70;12.23;;;;;;;;;;744343;187;630561;-67
2023/09/29 06:54:36;;;;;;;13.13;10.63;;;;;;;;;;745703;188;617823;-69
2023/09/29 06:57:02;;;;;;;18.20;9.70;;;;;;;;;;749927;187;616766;-68
2023/09/29 06:59:28;;;;;;;13.30;10.33;;;;;;;;;;748145;187;711532;-67
2023/09/29 07:01:55;;;;;;;11.43;8.70;;;;;;;;;;737364;187;907285;-67
2023/09/29 07:04:20;;;;;;;12.50;9.70;;;;;;;;;;738036;188;925519;-66
2023/09/29 07:06:46;;;;;;;14.02;9.93;;;;;;;;;;742618;187;919605;-67
2023/09/29 07:09:13;;;;;;;11.97;9.63;;;;;;;;;;733468;190;917841;-68
2023/09/29 07:11:40;;;;;;;15.53;9.53;;;;;;;;;;739972;187;919356;-67
2023/09/29 07:14:04;;;;;;;13.87;9.23;;;;;;;;;;741955;187;918664;-67
2023/09/29 07:16:29;;;;;;;20.37;10.80;;;;;;;;;;743055;186;920071;-68
2023/09/29 07:18:55;;;;;;;15.07;9.27;;;;;;;;;;745204;188;839161;-67
2023/09/29 07:21:21;;;;;;;11.07;9.40;;;;;;;;;;741975;188;916890;-68
2023/09/29 07:23:47;;;;;;;12.93;8.98;;;;;;;;;;744883;188;916000;-67
2023/09/29 07:26:13;;;;;;;11.20;8.33;;;;;;;;;;738309;188;942262;-67
2023/09/29 07:28:40;;;;;;;14.30;9.60;;;;;;;;;;733845;188;913860;-68
2023/09/29 07:31:05;;;;;;;13.10;10.23;;;;;;;;;;747331;187;919063;-69
2023/09/29 07:33:31;;;;;;;15.90;8.40;;;;;;;;;;744052;187;925213;-69
2023/09/29 07:35:56;;;;;;;12.73;8.23;;;;;;;;;;739423;186;912160;-67
2023/09/29 07:38:22;;;;;;;14.10;9.03;;;;;;;;;;742972;187;921119;-68
2023/09/29 07:40:48;;;;;;;13.00;9.77;;;;;;;;;;749148;184;817501;-66
2023/09/29 07:43:14;;;;;;;15.00;10.73;;;;;;;;;;737638;188;936077;-68
2023/09/29 07:45:40;;;;;;;11.60;7.90;;;;;;;;;;739449;187;918126;-65
2023/09/29 07:48:06;;;;;;;13.67;9.47;;;;;;;;;;747548;187;918804;-66
2023/09/29 07:50:32;;;;;;;13.40;8.77;;;;;;;;;;736202;187;917478;-66
2023/09/29 07:52:57;;;;;;;12.97;8.67;;;;;;;;;;737185;187;919257;-65
2023/09/29 07:55:23;;;;;;;10.80;8.40;;;;;;;;;;747828;187;816583;-67
2023/09/29 07:57:51;;;;;;;12.03;8.13;;;;;;;;;;737858;187;935083;-66
2023/09/29 08:00:16;;;;;;;10.97;7.77;;;;;;;;;;744106;187;919111;-65
2023/09/29 08:02:43;;;;;;;13.52;8.77;;;;;;;;;;745049;187;919970;-66
2023/09/29 08:05:08;;;;;;;11.83;8.10;;;;;;;;;;737646;188;879418;-66
2023/09/29 08:07:34;;;;;;;16.63;8.53;;;;;;;;;;738781;187;813914;-66
2023/09/29 08:10:00;;;;;;;14.40;8.50;;;;;;;;;;736636;187;916339;-66
2023/09/29 08:12:25;;;;;;;13.97;7.90;;;;;;;;;;738660;187;914967;-65
2023/09/29 08:14:51;;;;;;;14.70;8.37;;;;;;;;;;744272;187;815430;-67
2023/09/29 08:17:18;;;;;;;9.60;7.07;;;;;;;;;;741407;187;917333;-65
2023/09/29 08:19:44;;;;;;;10.70;7.47;;;;;;;;;;745674;187;918007;-65
2023/09/29 08:22:09;;;;;;;20.37;8.20;;;;;;;;;;741521;187;918682;-66
2023/09/29 08:24:35;;;;;;;15.85;6.87;;;;;;;;;;743388;187;919946;-65
2023/09/29 08:27:02;;;;;;;12.03;7.80;;;;;;;;;;746199;186;920187;-66
2023/09/29 08:29:27;;;;;;;15.70;7.77;;;;;;;;;;743239;186;818160;-65
2023/09/29 08:31:54;;;;;;;12.30;7.10;;;;;;;;;;741651;186;912760;-67
2023/09/29 08:34:19;;;;;;;10.47;7.93;;;;;;;;;;740253;186;904991;-69
2023/09/29 08:36:45;;;;;;;10.03;6.80;;;;;;;;;;738150;187;821135;-64
2023/09/29 08:39:11;;;;;;;15.80;7.13;;;;;;;;;;741222;187;919758;-65
2023/09/29 08:41:37;;;;;;;17.80;7.50;;;;;;;;;;740306;187;920037;-68
2023/09/29 08:44:04;;;;;;;13.43;7.17;;;;;;;;;;746905;187;816966;-67
2023/09/29 08:46:29;;;;;;;15.60;7.30;;;;;;;;;;739056;187;818463;-68
2023/09/29 08:48:55;;;;;;;13.83;6.97;;;;;;;;;;742651;187;816157;-63
2023/09/29 08:51:21;;;;;;;8.73;6.23;;;;;;;;;;742137;187;919329;-69
2023/09/29 08:53:47;;;;;;;8.57;5.87;;;;;;;;;;737812;188;915134;-65
2023/09/29 08:56:16;;;;;;;9.50;6.70;;;;;;;;;;741053;188;933541;-68
2023/09/29 08:58:39;;;;;;;10.53;7.30;;;;;;;;;;746116;187;620015;-68
2023/09/29 09:01:05;;;;;;;9.53;6.43;;;;;;;;;;735893;191;628204;-66
2023/09/29 09:03:30;;;;;;;11.63;6.03;;;;;;;;;;742454;187;835957;-69
2023/09/29 09:05:56;;;;;;;10.25;6.20;;;;;;;;;;740007;187;909129;-62
2023/09/29 09:08:23;;;;;;;18.23;6.50;;;;;;;;;;745690;188;912706;-67
2023/09/29 09:10:48;;;;;;;10.23;6.80;;;;;;;;;;741000;187;920439;-68
2023/09/29 09:13:14;;;;;;;12.70;6.80;;;;;;;;;;737486;188;917660;-64
2023/09/29 09:15:40;;;;;;;12.90;6.00;;;;;;;;;;744959;187;918934;-68
2023/09/29 09:18:05;;;;;;;13.53;6.10;;;;;;;;;;738344;187;920420;-64
2023/09/29 09:20:31;;;;;;;11.27;7.57;;;;;;;;;;738325;188;902090;-66
2023/09/29 09:22:59;;;;;;;8.57;6.30;;;;;;;;;;745765;187;920551;-67
2023/09/29 09:25:31;;;;;;;8.00;6.53;;;;;;;;;;739523;191;811692;-65
2023/09/29 09:27:56;;;;;;;13.40;6.40;;;;;;;;;;740079;187;935492;-64
2023/09/29 09:30:23;;;;;;;11.70;6.30;;;;;;;;;;740893;188;816731;-64
2023/09/29 09:32:48;;;;;;;11.03;5.90;;;;;;;;;;745500;187;918037;-68
2023/09/29 09:35:20;;;;;;;11.00;6.07;;;;;;;;;;744907;187;918762;-63
2023/09/29 09:37:46;;;;;;;7.53;5.17;;;;;;;;;;739943;186;873442;-64
2023/09/29 09:40:12;;;;;;;7.82;6.37;;;;;;;;;;740417;186;918764;-70
2023/09/29 09:42:38;;;;;;;11.60;6.30;;;;;;;;;;749195;186;927283;-64
2023/09/29 09:45:04;;;;;;;10.77;5.67;;;;;;;;;;741806;186;919159;-69
2023/09/29 09:47:29;;;;;;;8.50;5.60;;;;;;;;;;734757;188;919279;-71
2023/09/29 09:49:55;;;;;;;7.10;5.77;;;;;;;;;;727184;190;750436;-68
2023/09/29 09:52:21;;;;;;;15.43;6.13;;;;;;;;;;715617;193;918867;-72
2023/09/29 09:54:49;;;;;;;8.43;6.00;;;;;;;;;;711893;193;918585;-65
2023/09/29 09:57:20;;;;;;;12.70;6.28;;;;;;;;;;716579;195;919101;-68
2023/09/29 09:59:45;;;;;;;11.70;5.73;;;;;;;;;;739887;189;919728;-66
2023/09/29 10:02:11;;;;;;;11.00;5.67;;;;;;;;;;736364;187;919224;-69
2023/09/29 10:04:36;;;;;;;7.03;5.20;;;;;;;;;;740521;187;911250;-62
2023/09/29 10:07:03;;;;;;;12.20;6.13;;;;;;;;;;745602;187;921844;-63
2023/09/29 10:09:27;;;;;;;7.63;5.40;;;;;;;;;;739639;187;813387;-63
2023/09/29 10:11:58;;;;;;;8.80;4.72;;;;;;;;;;737150;188;918945;-70
2023/09/29 10:14:24;;;;;;;8.57;5.30;;;;;;;;;;737914;188;919963;-63
2023/09/29 10:16:51;;;;;;;9.70;5.00;;;;;;;;;;741750;188;843735;-72
2023/09/29 10:19:17;;;;;;;8.87;5.60;;;;;;;;;;741989;186;914508;-63
2023/09/29 10:21:42;;;;;;;13.53;5.60;;;;;;;;;;739116;187;920473;-64
2023/09/29 10:24:11;;;;;;;14.23;6.97;;;;;;;;;;744018;188;919116;-64
2023/09/29 10:26:39;;;;;;;8.50;5.27;;;;;;;;;;743863;187;918593;-65
2023/09/29 10:29:09;;;;;;;10.27;6.23;;;;;;;;;;738820;187;919116;-65
2023/09/29 10:31:31;;;;;;;13.47;5.40;;;;;;;;;;746045;187;920283;-72
2023/09/29 10:33:57;;;;;;;14.33;5.17;;;;;;;;;;739842;188;928463;-73
2023/09/29 10:36:23;;;;;;;6.27;5.53;;;;;;;;;;737691;189;843671;-65
2023/09/29 10:38:49;;;;;;;10.77;5.27;;;;;;;;;;732041;189;919251;-71
2023/09/29 10:41:15;;;;;;;12.00;5.80;;;;;;;;;;743851;187;918758;-64
2023/09/29 10:43:42;;;;;;;16.73;5.90;;;;;;;;;;741737;188;918069;-70
2023/09/29 10:46:08;;;;;;;9.00;6.00;;;;;;;;;;740969;187;920125;-74
2023/09/29 10:48:36;;;;;;;8.90;5.27;;;;;;;;;;744688;188;919505;-64
2023/09/29 10:51:00;;;;;;;11.33;6.27;;;;;;;;;;743883;187;918041;-72
2023/09/29 10:53:26;;;;;;;10.40;5.20;;;;;;;;;;739086;188;919031;-72
2023/09/29 10:55:51;;;;;;;12.17;5.80;;;;;;;;;;745324;186;913129;-65
2023/09/29 10:58:17;;;;;;;7.63;5.50;;;;;;;;;;736486;188;924376;-71
2023/09/29 11:00:46;;;;;;;10.43;5.43;;;;;;;;;;740156;187;919805;-71
2023/09/29 11:03:11;;;;;;;7.83;5.70;;;;;;;;;;735893;189;917937;-65
2023/09/29 11:05:36;;;;;;;12.30;4.97;;;;;;;;;;739877;190;918698;-71
2023/09/29 11:08:02;;;;;;;10.50;5.17;;;;;;;;;;740262;187;920426;-63
2023/09/29 11:10:29;;;;;;;5.87;4.60;;;;;;;;;;745395;188;630683;-61
2023/09/29 11:12:54;;;;;;;8.63;4.70;;;;;;;;;;748794;187;865239;-69
2023/09/29 11:15:21;;;;;;;8.67;5.17;;;;;;;;;;742044;187;916733;-68
2023/09/29 11:17:46;;;;;;;5.72;4.05;;;;;;;;;;738581;188;916481;-74
2023/09/29 11:20:16;;;;;;;12.63;5.57;;;;;;;;;;745196;187;919324;-70
2023/09/29 11:22:38;;;;;;;7.43;5.17;;;;;;;;;;747139;187;918870;-64
2023/09/29 11:25:05;;;;;;;10.20;5.87;;;;;;;;;;737138;187;919433;-63
2023/09/29 11:27:32;;;;;;;7.63;5.00;;;;;;;;;;735992;188;919030;-73
2023/09/29 11:29:55;;;;;;;7.77;5.57;;;;;;;;;;732802;186;919028;-65
2023/09/29 11:32:21;;;;;;;9.67;5.30;;;;;;;;;;717016;194;919350;-65
2023/09/29 11:34:48;;;;;;;11.77;4.93;;;;;;;;;;715113;193;882435;-65
2023/09/29 11:37:13;;;;;;;8.17;4.67;;;;;;;;;;715658;194;924352;-73
2023/09/29 11:39:39;;;;;;;10.33;5.97;;;;;;;;;;737959;187;919215;-64
2023/09/29 11:42:05;;;;;;;13.13;5.60;;;;;;;;;;738607;188;835434;-72
2023/09/29 11:44:30;;;;;;;12.63;5.40;;;;;;;;;;744622;188;817105;-72
2023/09/29 11:46:56;;;;;;;13.33;5.90;;;;;;;;;;736122;187;916475;-65
2023/09/29 11:49:22;;;;;;;8.70;5.60;;;;;;;;;;739963;188;917814;-73
2023/09/29 11:51:52;;;;;;;12.07;5.97;;;;;;;;;;748396;187;618118;-64
2023/09/29 11:54:14;;;;;;;6.80;4.53;;;;;;;;;;740806;187;624869;-63
2023/09/29 11:56:40;;;;;;;10.80;6.00;;;;;;;;;;742898;187;633128;-74
2023/09/29 11:59:06;;;;;;;8.73;5.47;;;;;;;;;;738704;187;640336;-72
2023/09/29 12:01:31;;;;;;;8.00;5.97;;;;;;;;;;748617;186;719034;-73
2023/09/29 12:03:58;;;;;;;9.80;5.20;;;;;;;;;;742709;187;817830;-72
2023/09/29 12:06:24;;;;;;;7.63;4.73;;;;;;;;;;742934;188;917791;-71
2023/09/29 12:08:50;;;;;;;11.33;4.73;;;;;;;;;;744403;188;918633;-73
2023/09/29 12:11:19;;;;;;;9.97;4.77;;;;;;;;;;738887;188;917124;-74
2023/09/29 12:13:42;;;;;;;7.10;5.07;;;;;;;;;;740512;187;918089;-64
2023/09/29 12:16:09;;;;;;;6.87;5.00;;;;;;;;;;744805;187;715916;-64
2023/09/29 12:18:34;;;;;;;14.33;5.93;;;;;;;;;;738916;188;918905;-70
2023/09/29 12:21:00;;;;;;;8.13;5.13;;;;;;;;;;741520;187;924380;-65
2023/09/29 12:23:27;;;;;;;7.83;5.23;;;;;;;;;;740219;187;918069;-74
2023/09/29 12:25:52;;;;;;;8.63;5.43;;;;;;;;;;743910;187;811145;-70
2023/09/29 12:28:19;;;;;;;10.53;4.70;;;;;;;;;;742832;187;902760;-71
2023/09/29 12:30:44;;;;;;;11.27;6.10;;;;;;;;;;739224;187;919020;-73
2023/09/29 12:33:10;;;;;;;8.57;5.27;;;;;;;;;;746700;187;918631;-65
2023/09/29 12:35:36;;;;;;;7.47;5.17;;;;;;;;;;742432;187;810339;-69
2023/09/29 12:38:03;;;;;;;7.50;5.03;;;;;;;;;;741421;187;905634;-65
2023/09/29 12:40:28;;;;;;;12.77;5.10;;;;;;;;;;743592;187;706220;-64
2023/09/29 12:42:54;;;;;;;17.90;6.47;;;;;;;;;;733941;188;937879;-64
2023/09/29 12:45:21;;;;;;;7.57;4.70;;;;;;;;;;720638;191;916567;-72
2023/09/29 12:47:47;;;;;;;9.20;5.57;;;;;;;;;;732095;188;918064;-66
2023/09/29 12:50:12;;;;;;;9.17;5.50;;;;;;;;;;722424;193;919504;-66
2023/09/29 12:52:38;;;;;;;9.30;5.63;;;;;;;;;;714013;191;916086;-72
2023/09/29 12:55:05;;;;;;;12.97;5.23;;;;;;;;;;706969;197;916533;-72
2023/09/29 12:57:31;;;;;;;15.63;4.83;;;;;;;;;;732856;191;918862;-70
2023/09/29 12:59:58;;;;;;;6.47;4.67;;;;;;;;;;740351;187;661017;-65
2023/09/29 13:02:25;;;;;;;12.10;5.27;;;;;;;;;;742848;187;919058;-65
2023/09/29 13:04:49;;;;;;;8.00;5.20;;;;;;;;;;745891;187;813356;-65
2023/09/29 13:07:15;;;;;;;7.10;4.97;;;;;;;;;;738738;187;918510;-73
2023/09/29 13:09:40;;;;;;;9.80;4.63;;;;;;;;;;739879;187;915111;-63
2023/09/29 13:12:07;;;;;;;8.93;5.30;;;;;;;;;;741383;187;918509;-63
2023/09/29 13:14:32;;;;;;;9.30;5.28;;;;;;;;;;739793;190;817191;-70
2023/09/29 13:16:58;;;;;;;10.47;5.47;;;;;;;;;;743014;186;1136788;-72
2023/09/29 13:19:25;;;;;;;8.40;5.27;;;;;;;;;;744842;186;918304;-69
2023/09/29 13:21:50;;;;;;;8.53;6.00;;;;;;;;;;741736;187;915575;-63
2023/09/29 13:24:16;;;;;;;7.17;5.10;;;;;;;;;;735996;188;922032;-72
2023/09/29 13:26:41;;;;;;;8.10;5.20;;;;;;;;;;739845;187;919820;-71
2023/09/29 13:29:07;;;;;;;8.23;5.20;;;;;;;;;;748009;187;723892;-71
2023/09/29 13:31:33;;;;;;;9.20;5.50;;;;;;;;;;739963;187;816041;-65
2023/09/29 13:33:59;;;;;;;6.37;5.03;;;;;;;;;;744141;187;638078;-65
2023/09/29 13:36:25;;;;;;;7.70;5.00;;;;;;;;;;743674;187;816780;-65
2023/09/29 13:38:51;;;;;;;13.27;5.60;;;;;;;;;;741501;187;916721;-72
2023/09/29 13:41:16;;;;;;;6.43;4.60;;;;;;;;;;741578;187;906321;-72
2023/09/29 13:43:43;;;;;;;7.17;5.07;;;;;;;;;;736359;187;918222;-65
2023/09/29 13:46:08;;;;;;;14.30;5.10;;;;;;;;;;749368;187;627160;-64
2023/09/29 13:48:34;;;;;;;7.70;5.40;;;;;;;;;;733913;187;920284;-72
2023/09/29 13:51:00;;;;;;;10.40;5.00;;;;;;;;;;741283;187;918763;-71
2023/09/29 13:53:26;;;;;;;7.40;4.97;;;;;;;;;;746025;188;817056;-65
2023/09/29 13:55:51;;;;;;;7.90;4.80;;;;;;;;;;739664;187;835708;-63
2023/09/29 13:58:18;;;;;;;7.47;4.50;;;;;;;;;;740302;187;919588;-72
2023/09/29 14:00:44;;;;;;;8.40;4.50;;;;;;;;;;745035;187;817106;-72
2023/09/29 14:03:10;;;;;;;10.10;4.87;;;;;;;;;;742490;187;630151;-64
2023/09/29 14:05:36;;;;;;;7.27;5.00;;;;;;;;;;742341;188;810388;-65
2023/09/29 14:08:03;;;;;;;6.60;3.90;;;;;;;;;;738984;187;918970;-65
2023/09/29 14:10:28;;;;;;;9.90;5.60;;;;;;;;;;745451;188;629531;-64